sensor_id;sensor_type;location;lat;lon;timestamp;temperature;humidity
3684;DHT22;1858;48.716;9.648;2022-12-07T00:01:39;6.10;99.90
3684;DHT22;1858;48.716;9.648;2022-12-07T00:04:13;6.00;99.90
3684;DHT22;1858;48.716;9.648;2022-12-07T00:07:01;6.00;99.90
3684;DHT22;1858;48.716;9.648;2022-12-07T00:09:30;6.00;99.90
3684;DHT22;1858;48.716;9.648;2022-12-07T00:11:58;6.10;99.90
3684;DHT22;1858;48.716;9.648;2022-12-07T00:14:30;6.00;99.90
3684;DHT22;1858;48.716;9.648;2022-12-07T00:16:59;6.00;99.90
3684;DHT22;1858;48.716;9.648;2022-12-07T00:19:28;6.00;99.90
3684;DHT22;1858;48.716;9.648;2022-12-07T00:21:56;6.10;99.90
3684;DHT22;1858;48.716;9.648;2022-12-07T00:24:25;6.00;99.90
3684;DHT22;1858;48.716;9.648;2022-12-07T00:26:53;6.00;99.90
3684;DHT22;1858;48.716;9.648;2022-12-07T00:29:21;6.00;99.90
3684;DHT22;1858;48.716;9.648;2022-12-07T00:31:50;6.00;99.90
3684;DHT22;1858;48.716;9.648;2022-12-07T00:34:21;6.10;99.90
3684;DHT22;1858;48.716;9.648;2022-12-07T00:36:50;6.10;99.90
3684;DHT22;1858;48.716;9.648;2022-12-07T00:39:18;6.10;99.90
3684;DHT22;1858;48.716;9.648;2022-12-07T00:41:46;6.10;99.90
3684;DHT22;1858;48.716;9.648;2022-12-07T00:44:15;6.00;99.90
3684;DHT22;1858;48.716;9.648;2022-12-07T00:46:43;6.10;99.90
3684;DHT22;1858;48.716;9.648;2022-12-07T00:49:13;6.10;99.90
3684;DHT22;1858;48.716;9.648;2022-12-07T00:51:41;6.10;99.90
3684;DHT22;1858;48.716;9.648;2022-12-07T00:54:09;6.10;99.90
3684;DHT22;1858;48.716;9.648;2022-12-07T00:56:38;6.10;99.90
3684;DHT22;1858;48.716;9.648;2022-12-07T00:59:06;6.00;99.90
3684;DHT22;1858;48.716;9.648;2022-12-07T01:01:36;6.00;99.90
3684;DHT22;1858;48.716;9.648;2022-12-07T01:04:05;6.00;99.90
3684;DHT22;1858;48.716;9.648;2022-12-07T01:06:33;6.00;99.90
3684;DHT22;1858;48.716;9.648;2022-12-07T01:09:03;6.10;99.90
3684;DHT22;1858;48.716;9.648;2022-12-07T01:11:33;6.10;99.90
3684;DHT22;1858;48.716;9.648;2022-12-07T01:14:02;6.10;99.90
3684;DHT22;1858;48.716;9.648;2022-12-07T01:16:32;6.10;99.90
3684;DHT22;1858;48.716;9.648;2022-12-07T01:19:02;6.00;99.90
3684;DHT22;1858;48.716;9.648;2022-12-07T01:21:33;6.00;99.90
3684;DHT22;1858;48.716;9.648;2022-12-07T01:24:08;5.90;99.90
3684;DHT22;1858;48.716;9.648;2022-12-07T01:26:36;5.90;99.90
3684;DHT22;1858;48.716;9.648;2022-12-07T01:29:04;5.90;99.90
3684;DHT22;1858;48.716;9.648;2022-12-07T01:31:33;6.00;99.90
3684;DHT22;1858;48.716;9.648;2022-12-07T01:34:01;6.00;99.90
3684;DHT22;1858;48.716;9.648;2022-12-07T01:36:35;6.00;99.90
3684;DHT22;1858;48.716;9.648;2022-12-07T01:39:06;6.00;99.90
3684;DHT22;1858;48.716;9.648;2022-12-07T01:41:38;6.00;99.90
3684;DHT22;1858;48.716;9.648;2022-12-07T01:47:02;6.10;99.90
3684;DHT22;1858;48.716;9.648;2022-12-07T01:49:38;6.10;99.90
3684;DHT22;1858;48.716;9.648;2022-12-07T01:55:14;6.00;99.90
3684;DHT22;1858;48.716;9.648;2022-12-07T01:57:48;6.00;99.90
3684;DHT22;1858;48.716;9.648;2022-12-07T02:00:34;6.00;99.90
3684;DHT22;1858;48.716;9.648;2022-12-07T02:05:58;5.80;99.90
3684;DHT22;1858;48.716;9.648;2022-12-07T02:08:29;5.80;99.90
3684;DHT22;1858;48.716;9.648;2022-12-07T02:11:18;5.90;99.90
3684;DHT22;1858;48.716;9.648;2022-12-07T02:13:47;5.80;99.90
3684;DHT22;1858;48.716;9.648;2022-12-07T02:19:22;5.90;99.90
3684;DHT22;1858;48.716;9.648;2022-12-07T02:25:08;5.60;99.90
3684;DHT22;1858;48.716;9.648;2022-12-07T02:27:47;5.50;99.90
3684;DHT22;1858;48.716;9.648;2022-12-07T02:30:20;5.30;99.90
3684;DHT22;1858;48.716;9.648;2022-12-07T02:33:06;5.30;99.90
3684;DHT22;1858;48.716;9.648;2022-12-07T02:35:48;5.20;99.90
3684;DHT22;1858;48.716;9.648;2022-12-07T02:41:11;5.20;99.90
3684;DHT22;1858;48.716;9.648;2022-12-07T02:44:02;5.20;99.90
3684;DHT22;1858;48.716;9.648;2022-12-07T02:46:37;5.30;99.90
3684;DHT22;1858;48.716;9.648;2022-12-07T02:49:05;5.30;99.90
3684;DHT22;1858;48.716;9.648;2022-12-07T02:51:42;5.40;99.90
3684;DHT22;1858;48.716;9.648;2022-12-07T02:54:15;5.40;99.90
3684;DHT22;1858;48.716;9.648;2022-12-07T02:56:52;5.40;99.90
3684;DHT22;1858;48.716;9.648;2022-12-07T02:59:59;5.40;99.90
3684;DHT22;1858;48.716;9.648;2022-12-07T03:07:53;5.30;99.90
3684;DHT22;1858;48.716;9.648;2022-12-07T03:13:22;5.30;99.90
3684;DHT22;1858;48.716;9.648;2022-12-07T03:18:48;5.40;99.90
3684;DHT22;1858;48.716;9.648;2022-12-07T03:21:39;5.40;99.90
3684;DHT22;1858;48.716;9.648;2022-12-07T03:24:12;5.50;99.90
3684;DHT22;1858;48.716;9.648;2022-12-07T03:26:42;5.50;99.90
3684;DHT22;1858;48.716;9.648;2022-12-07T03:32:08;5.50;99.90
3684;DHT22;1858;48.716;9.648;2022-12-07T03:40:10;5.30;99.90
3684;DHT22;1858;48.716;9.648;2022-12-07T03:42:56;5.40;99.90
3684;DHT22;1858;48.716;9.648;2022-12-07T03:45:31;5.50;99.90
3684;DHT22;1858;48.716;9.648;2022-12-07T03:48:16;5.50;99.90
3684;DHT22;1858;48.716;9.648;2022-12-07T03:51:03;5.50;99.90
3684;DHT22;1858;48.716;9.648;2022-12-07T03:56:15;5.40;99.90
3684;DHT22;1858;48.716;9.648;2022-12-07T03:58:43;5.40;99.90
3684;DHT22;1858;48.716;9.648;2022-12-07T04:01:12;5.40;99.90
3684;DHT22;1858;48.716;9.648;2022-12-07T04:03:40;5.40;99.90
3684;DHT22;1858;48.716;9.648;2022-12-07T04:06:09;5.50;99.90
3684;DHT22;1858;48.716;9.648;2022-12-07T04:08:37;5.50;99.90
3684;DHT22;1858;48.716;9.648;2022-12-07T04:11:05;5.60;99.90
3684;DHT22;1858;48.716;9.648;2022-12-07T04:13:34;5.60;99.90
3684;DHT22;1858;48.716;9.648;2022-12-07T04:16:23;5.50;99.90
3684;DHT22;1858;48.716;9.648;2022-12-07T04:18:51;5.40;99.90
3684;DHT22;1858;48.716;9.648;2022-12-07T04:21:19;5.40;99.90
3684;DHT22;1858;48.716;9.648;2022-12-07T04:23:48;5.30;99.90
3684;DHT22;1858;48.716;9.648;2022-12-07T04:26:16;5.30;99.90
3684;DHT22;1858;48.716;9.648;2022-12-07T04:28:45;5.20;99.90
3684;DHT22;1858;48.716;9.648;2022-12-07T04:31:13;5.20;99.90
3684;DHT22;1858;48.716;9.648;2022-12-07T04:33:41;5.20;99.90
3684;DHT22;1858;48.716;9.648;2022-12-07T04:36:10;5.20;99.90
3684;DHT22;1858;48.716;9.648;2022-12-07T04:38:38;5.20;99.90
3684;DHT22;1858;48.716;9.648;2022-12-07T04:41:08;5.20;99.90
3684;DHT22;1858;48.716;9.648;2022-12-07T04:43:36;5.20;99.90
3684;DHT22;1858;48.716;9.648;2022-12-07T04:46:05;5.10;99.90
3684;DHT22;1858;48.716;9.648;2022-12-07T04:48:33;5.20;99.90
3684;DHT22;1858;48.716;9.648;2022-12-07T04:51:03;5.10;99.90
3684;DHT22;1858;48.716;9.648;2022-12-07T04:53:31;5.10;99.90
3684;DHT22;1858;48.716;9.648;2022-12-07T04:55:59;5.00;99.90
3684;DHT22;1858;48.716;9.648;2022-12-07T04:58:28;5.10;99.90
3684;DHT22;1858;48.716;9.648;2022-12-07T05:00:56;5.00;99.90
3684;DHT22;1858;48.716;9.648;2022-12-07T05:03:25;5.00;99.90
3684;DHT22;1858;48.716;9.648;2022-12-07T05:05:53;4.90;99.90
3684;DHT22;1858;48.716;9.648;2022-12-07T05:08:21;4.80;99.90
3684;DHT22;1858;48.716;9.648;2022-12-07T05:10:50;4.70;99.90
3684;DHT22;1858;48.716;9.648;2022-12-07T05:13:18;4.70;99.90
3684;DHT22;1858;48.716;9.648;2022-12-07T05:15:47;4.60;99.90
3684;DHT22;1858;48.716;9.648;2022-12-07T05:18:16;4.50;99.90
3684;DHT22;1858;48.716;9.648;2022-12-07T05:20:45;4.50;99.90
3684;DHT22;1858;48.716;9.648;2022-12-07T05:23:13;4.50;99.90
3684;DHT22;1858;48.716;9.648;2022-12-07T05:25:41;4.40;99.90
3684;DHT22;1858;48.716;9.648;2022-12-07T05:28:10;4.30;99.90
3684;DHT22;1858;48.716;9.648;2022-12-07T05:30:39;4.30;99.90
3684;DHT22;1858;48.716;9.648;2022-12-07T05:33:07;4.20;99.90
3684;DHT22;1858;48.716;9.648;2022-12-07T05:35:36;4.30;99.90
3684;DHT22;1858;48.716;9.648;2022-12-07T05:38:05;4.20;99.90
3684;DHT22;1858;48.716;9.648;2022-12-07T05:40:33;4.00;99.90
3684;DHT22;1858;48.716;9.648;2022-12-07T05:43:01;4.10;1.00
3684;DHT22;1858;48.716;9.648;2022-12-07T05:45:30;3.90;1.00
3684;DHT22;1858;48.716;9.648;2022-12-07T05:47:58;4.00;1.00
3684;DHT22;1858;48.716;9.648;2022-12-07T05:50:27;4.10;1.00
3684;DHT22;1858;48.716;9.648;2022-12-07T05:52:55;4.10;1.00
3684;DHT22;1858;48.716;9.648;2022-12-07T05:55:23;4.20;1.00
3684;DHT22;1858;48.716;9.648;2022-12-07T05:57:52;4.40;1.00
3684;DHT22;1858;48.716;9.648;2022-12-07T06:00:38;4.40;1.00
3684;DHT22;1858;48.716;9.648;2022-12-07T06:03:06;4.50;1.00
3684;DHT22;1858;48.716;9.648;2022-12-07T06:05:35;4.40;99.90
3684;DHT22;1858;48.716;9.648;2022-12-07T06:08:04;4.40;99.90
3684;DHT22;1858;48.716;9.648;2022-12-07T06:10:32;4.40;99.90
3684;DHT22;1858;48.716;9.648;2022-12-07T06:13:00;4.30;99.90
3684;DHT22;1858;48.716;9.648;2022-12-07T06:15:29;4.20;99.90
3684;DHT22;1858;48.716;9.648;2022-12-07T06:17:57;4.10;99.90
3684;DHT22;1858;48.716;9.648;2022-12-07T06:20:26;4.10;99.90
3684;DHT22;1858;48.716;9.648;2022-12-07T06:22:54;4.10;99.90
3684;DHT22;1858;48.716;9.648;2022-12-07T06:25:22;4.00;99.90
3684;DHT22;1858;48.716;9.648;2022-12-07T06:27:51;4.00;99.90
3684;DHT22;1858;48.716;9.648;2022-12-07T06:30:19;3.90;99.90
3684;DHT22;1858;48.716;9.648;2022-12-07T06:32:47;4.00;1.00
3684;DHT22;1858;48.716;9.648;2022-12-07T06:35:16;4.00;1.00
3684;DHT22;1858;48.716;9.648;2022-12-07T06:37:44;4.10;1.00
3684;DHT22;1858;48.716;9.648;2022-12-07T06:40:13;4.00;1.00
3684;DHT22;1858;48.716;9.648;2022-12-07T06:42:41;3.90;1.00
3684;DHT22;1858;48.716;9.648;2022-12-07T06:45:10;3.90;1.00
3684;DHT22;1858;48.716;9.648;2022-12-07T06:47:38;4.00;1.00
3684;DHT22;1858;48.716;9.648;2022-12-07T06:52:56;4.00;1.00
3684;DHT22;1858;48.716;9.648;2022-12-07T06:55:24;4.00;1.00
3684;DHT22;1858;48.716;9.648;2022-12-07T06:57:53;4.00;1.00
3684;DHT22;1858;48.716;9.648;2022-12-07T07:00:21;4.10;1.00
3684;DHT22;1858;48.716;9.648;2022-12-07T07:02:49;4.10;1.00
3684;DHT22;1858;48.716;9.648;2022-12-07T07:05:18;4.20;1.00
3684;DHT22;1858;48.716;9.648;2022-12-07T07:07:49;4.20;1.00
3684;DHT22;1858;48.716;9.648;2022-12-07T07:10:18;4.20;1.00
3684;DHT22;1858;48.716;9.648;2022-12-07T07:12:46;4.30;1.00
3684;DHT22;1858;48.716;9.648;2022-12-07T07:15:15;4.30;99.90
3684;DHT22;1858;48.716;9.648;2022-12-07T07:17:43;4.40;1.00
3684;DHT22;1858;48.716;9.648;2022-12-07T07:20:13;4.40;99.90
3684;DHT22;1858;48.716;9.648;2022-12-07T07:22:42;4.40;99.90
3684;DHT22;1858;48.716;9.648;2022-12-07T07:25:10;4.40;99.90
3684;DHT22;1858;48.716;9.648;2022-12-07T07:27:38;4.50;99.90
3684;DHT22;1858;48.716;9.648;2022-12-07T07:30:07;4.60;99.90
3684;DHT22;1858;48.716;9.648;2022-12-07T07:32:36;4.70;99.90
3684;DHT22;1858;48.716;9.648;2022-12-07T07:35:05;4.70;99.90
3684;DHT22;1858;48.716;9.648;2022-12-07T07:37:33;4.70;99.90
3684;DHT22;1858;48.716;9.648;2022-12-07T07:40:02;4.80;99.90
3684;DHT22;1858;48.716;9.648;2022-12-07T07:42:30;4.90;99.90
3684;DHT22;1858;48.716;9.648;2022-12-07T07:44:58;4.90;99.90
3684;DHT22;1858;48.716;9.648;2022-12-07T07:47:27;4.90;99.90
3684;DHT22;1858;48.716;9.648;2022-12-07T07:49:56;4.90;99.90
3684;DHT22;1858;48.716;9.648;2022-12-07T07:52:24;5.00;99.90
3684;DHT22;1858;48.716;9.648;2022-12-07T07:54:53;5.00;99.90
3684;DHT22;1858;48.716;9.648;2022-12-07T07:57:21;5.10;99.90
3684;DHT22;1858;48.716;9.648;2022-12-07T07:59:50;5.00;99.90
3684;DHT22;1858;48.716;9.648;2022-12-07T08:02:20;4.90;99.90
3684;DHT22;1858;48.716;9.648;2022-12-07T08:04:49;5.00;99.90
3684;DHT22;1858;48.716;9.648;2022-12-07T08:07:17;5.00;99.90
3684;DHT22;1858;48.716;9.648;2022-12-07T08:09:46;5.10;99.90
3684;DHT22;1858;48.716;9.648;2022-12-07T08:12:14;5.10;99.90
3684;DHT22;1858;48.716;9.648;2022-12-07T08:14:43;5.20;99.90
3684;DHT22;1858;48.716;9.648;2022-12-07T08:17:11;5.10;99.90
3684;DHT22;1858;48.716;9.648;2022-12-07T08:19:39;5.20;99.90
3684;DHT22;1858;48.716;9.648;2022-12-07T08:22:08;5.20;99.90
3684;DHT22;1858;48.716;9.648;2022-12-07T08:24:36;5.30;99.90
3684;DHT22;1858;48.716;9.648;2022-12-07T08:27:05;5.30;99.90
3684;DHT22;1858;48.716;9.648;2022-12-07T08:29:33;5.30;99.90
3684;DHT22;1858;48.716;9.648;2022-12-07T08:32:01;5.30;99.90
3684;DHT22;1858;48.716;9.648;2022-12-07T08:34:30;5.30;99.90
3684;DHT22;1858;48.716;9.648;2022-12-07T08:36:58;5.30;99.90
3684;DHT22;1858;48.716;9.648;2022-12-07T08:39:27;5.40;99.90
3684;DHT22;1858;48.716;9.648;2022-12-07T08:41:55;5.40;99.90
3684;DHT22;1858;48.716;9.648;2022-12-07T08:44:23;5.50;99.90
3684;DHT22;1858;48.716;9.648;2022-12-07T08:46:55;5.50;99.90
3684;DHT22;1858;48.716;9.648;2022-12-07T08:49:39;5.60;99.90
3684;DHT22;1858;48.716;9.648;2022-12-07T08:52:05;5.60;99.90
3684;DHT22;1858;48.716;9.648;2022-12-07T08:54:53;5.60;99.90
3684;DHT22;1858;48.716;9.648;2022-12-07T08:57:22;5.70;98.30
3684;DHT22;1858;48.716;9.648;2022-12-07T08:59:51;5.80;80.20
3684;DHT22;1858;48.716;9.648;2022-12-07T09:02:19;5.80;63.60
3684;DHT22;1858;48.716;9.648;2022-12-07T09:04:48;5.80;73.70
3684;DHT22;1858;48.716;9.648;2022-12-07T09:07:17;5.80;82.20
3684;DHT22;1858;48.716;9.648;2022-12-07T09:09:45;5.80;65.50
3684;DHT22;1858;48.716;9.648;2022-12-07T09:12:13;5.80;51.70
3684;DHT22;1858;48.716;9.648;2022-12-07T09:14:42;5.90;50.80
3684;DHT22;1858;48.716;9.648;2022-12-07T09:17:11;5.80;47.00
3684;DHT22;1858;48.716;9.648;2022-12-07T09:19:40;5.90;48.40
3684;DHT22;1858;48.716;9.648;2022-12-07T09:22:09;5.90;45.10
3684;DHT22;1858;48.716;9.648;2022-12-07T09:24:38;6.00;48.60
3684;DHT22;1858;48.716;9.648;2022-12-07T09:27:06;6.00;39.40
3684;DHT22;1858;48.716;9.648;2022-12-07T09:29:34;6.10;39.60
3684;DHT22;1858;48.716;9.648;2022-12-07T09:32:03;6.10;29.80
3684;DHT22;1858;48.716;9.648;2022-12-07T09:34:32;6.10;24.00
3684;DHT22;1858;48.716;9.648;2022-12-07T09:37:01;6.10;20.60
3684;DHT22;1858;48.716;9.648;2022-12-07T09:39:30;6.20;16.70
3684;DHT22;1858;48.716;9.648;2022-12-07T09:42:02;6.00;15.90
3684;DHT22;1858;48.716;9.648;2022-12-07T09:44:30;6.10;17.40
3684;DHT22;1858;48.716;9.648;2022-12-07T09:46:58;6.10;18.00
3684;DHT22;1858;48.716;9.648;2022-12-07T09:49:30;6.20;24.50
3684;DHT22;1858;48.716;9.648;2022-12-07T09:52:01;6.30;2.40
3684;DHT22;1858;48.716;9.648;2022-12-07T09:54:30;6.30;1.50
3684;DHT22;1858;48.716;9.648;2022-12-07T09:57:00;6.40;1.00
3684;DHT22;1858;48.716;9.648;2022-12-07T09:59:29;6.30;1.00
3684;DHT22;1858;48.716;9.648;2022-12-07T10:02:04;6.20;1.00
3684;DHT22;1858;48.716;9.648;2022-12-07T10:04:29;6.20;1.00
3684;DHT22;1858;48.716;9.648;2022-12-07T10:06:57;6.30;1.00
3684;DHT22;1858;48.716;9.648;2022-12-07T10:09:26;6.40;1.00
3684;DHT22;1858;48.716;9.648;2022-12-07T10:12:15;6.40;1.00
3684;DHT22;1858;48.716;9.648;2022-12-07T10:15:04;6.50;1.00
3684;DHT22;1858;48.716;9.648;2022-12-07T10:17:39;6.70;1.00
3684;DHT22;1858;48.716;9.648;2022-12-07T10:20:17;6.80;1.00
3684;DHT22;1858;48.716;9.648;2022-12-07T10:23:04;6.90;1.00
3684;DHT22;1858;48.716;9.648;2022-12-07T10:25:35;7.10;1.00
3684;DHT22;1858;48.716;9.648;2022-12-07T10:28:18;7.20;1.00
3684;DHT22;1858;48.716;9.648;2022-12-07T10:30:55;7.20;1.00
3684;DHT22;1858;48.716;9.648;2022-12-07T10:36:35;7.50;1.00
3684;DHT22;1858;48.716;9.648;2022-12-07T10:39:16;7.60;1.00
3684;DHT22;1858;48.716;9.648;2022-12-07T10:42:01;7.60;1.00
3684;DHT22;1858;48.716;9.648;2022-12-07T10:44:27;7.60;1.00
3684;DHT22;1858;48.716;9.648;2022-12-07T10:52:42;7.60;1.00
3684;DHT22;1858;48.716;9.648;2022-12-07T11:01:45;7.90;1.00
3684;DHT22;1858;48.716;9.648;2022-12-07T11:10:25;7.70;1.00
3684;DHT22;1858;48.716;9.648;2022-12-07T11:13:18;7.80;1.00
3684;DHT22;1858;48.716;9.648;2022-12-07T11:24:45;7.70;1.00
3684;DHT22;1858;48.716;9.648;2022-12-07T11:35:35;7.40;1.00
3684;DHT22;1858;48.716;9.648;2022-12-07T11:38:16;7.50;1.00
3684;DHT22;1858;48.716;9.648;2022-12-07T11:40:50;7.50;1.00
3684;DHT22;1858;48.716;9.648;2022-12-07T11:43:50;7.60;1.00
3684;DHT22;1858;48.716;9.648;2022-12-07T11:46:17;7.70;1.00
3684;DHT22;1858;48.716;9.648;2022-12-07T11:51:20;7.90;1.00
3684;DHT22;1858;48.716;9.648;2022-12-07T11:53:55;7.90;1.00
3684;DHT22;1858;48.716;9.648;2022-12-07T11:56:27;8.00;1.00
3684;DHT22;1858;48.716;9.648;2022-12-07T11:58:59;7.90;1.00
3684;DHT22;1858;48.716;9.648;2022-12-07T12:01:48;7.90;1.00
3684;DHT22;1858;48.716;9.648;2022-12-07T12:04:40;8.00;1.00
3684;DHT22;1858;48.716;9.648;2022-12-07T12:07:05;8.00;1.00
3684;DHT22;1858;48.716;9.648;2022-12-07T12:09:52;8.20;1.00
3684;DHT22;1858;48.716;9.648;2022-12-07T12:12:29;8.30;1.00
3684;DHT22;1858;48.716;9.648;2022-12-07T12:21:04;8.20;1.00
3684;DHT22;1858;48.716;9.648;2022-12-07T12:26:21;8.30;1.00
3684;DHT22;1858;48.716;9.648;2022-12-07T12:28:52;8.20;1.00
3684;DHT22;1858;48.716;9.648;2022-12-07T12:33:55;8.00;1.00
3684;DHT22;1858;48.716;9.648;2022-12-07T12:36:43;7.90;1.00
3684;DHT22;1858;48.716;9.648;2022-12-07T12:47:02;8.00;1.00
3684;DHT22;1858;48.716;9.648;2022-12-07T12:51:59;8.10;1.00
3684;DHT22;1858;48.716;9.648;2022-12-07T12:57:35;8.20;1.00
3684;DHT22;1858;48.716;9.648;2022-12-07T13:00:23;8.20;1.00
3684;DHT22;1858;48.716;9.648;2022-12-07T13:02:55;8.10;1.00
3684;DHT22;1858;48.716;9.648;2022-12-07T13:05:34;8.20;1.00
3684;DHT22;1858;48.716;9.648;2022-12-07T13:08:17;8.10;1.00
3684;DHT22;1858;48.716;9.648;2022-12-07T13:10:46;8.10;1.00
3684;DHT22;1858;48.716;9.648;2022-12-07T13:18:56;7.90;1.00
3684;DHT22;1858;48.716;9.648;2022-12-07T13:21:42;7.80;1.00
3684;DHT22;1858;48.716;9.648;2022-12-07T13:24:12;7.70;1.00
3684;DHT22;1858;48.716;9.648;2022-12-07T13:26:42;7.70;1.00
3684;DHT22;1858;48.716;9.648;2022-12-07T13:29:14;7.60;1.00
3684;DHT22;1858;48.716;9.648;2022-12-07T13:31:45;7.50;1.00
3684;DHT22;1858;48.716;9.648;2022-12-07T13:34:35;7.50;1.00
3684;DHT22;1858;48.716;9.648;2022-12-07T13:37:21;7.40;1.00
3684;DHT22;1858;48.716;9.648;2022-12-07T13:39:47;7.20;1.00
3684;DHT22;1858;48.716;9.648;2022-12-07T13:42:30;7.20;1.00
3684;DHT22;1858;48.716;9.648;2022-12-07T13:45:22;7.30;1.00
3684;DHT22;1858;48.716;9.648;2022-12-07T13:50:51;7.30;1.00
3684;DHT22;1858;48.716;9.648;2022-12-07T13:53:15;7.30;1.00
3684;DHT22;1858;48.716;9.648;2022-12-07T13:55:47;7.20;1.00
3684;DHT22;1858;48.716;9.648;2022-12-07T13:58:16;7.30;1.00
3684;DHT22;1858;48.716;9.648;2022-12-07T14:00:44;7.30;1.00
3684;DHT22;1858;48.716;9.648;2022-12-07T14:06:07;7.30;1.00
3684;DHT22;1858;48.716;9.648;2022-12-07T14:08:35;7.20;1.00
3684;DHT22;1858;48.716;9.648;2022-12-07T14:11:04;7.30;1.00
3684;DHT22;1858;48.716;9.648;2022-12-07T14:13:35;7.30;1.00
3684;DHT22;1858;48.716;9.648;2022-12-07T14:16:23;7.20;1.00
3684;DHT22;1858;48.716;9.648;2022-12-07T14:18:53;7.20;1.00
3684;DHT22;1858;48.716;9.648;2022-12-07T14:21:24;7.10;1.00
3684;DHT22;1858;48.716;9.648;2022-12-07T14:24:17;7.10;1.00
3684;DHT22;1858;48.716;9.648;2022-12-07T14:26:48;7.10;1.00
3684;DHT22;1858;48.716;9.648;2022-12-07T14:31:57;7.10;1.00
3684;DHT22;1858;48.716;9.648;2022-12-07T14:34:26;7.00;1.00
3684;DHT22;1858;48.716;9.648;2022-12-07T14:36:54;7.00;1.00
3684;DHT22;1858;48.716;9.648;2022-12-07T14:39:23;7.00;1.00
3684;DHT22;1858;48.716;9.648;2022-12-07T14:41:51;7.00;1.00
3684;DHT22;1858;48.716;9.648;2022-12-07T14:44:39;6.90;1.00
3684;DHT22;1858;48.716;9.648;2022-12-07T14:47:09;7.00;1.00
3684;DHT22;1858;48.716;9.648;2022-12-07T14:49:38;7.00;1.00
3684;DHT22;1858;48.716;9.648;2022-12-07T14:52:13;7.00;1.00
3684;DHT22;1858;48.716;9.648;2022-12-07T14:54:38;7.00;1.00
3684;DHT22;1858;48.716;9.648;2022-12-07T14:57:09;7.00;1.00
3684;DHT22;1858;48.716;9.648;2022-12-07T14:59:38;6.90;1.00
3684;DHT22;1858;48.716;9.648;2022-12-07T15:02:09;7.00;1.00
3684;DHT22;1858;48.716;9.648;2022-12-07T15:04:37;7.00;1.00
3684;DHT22;1858;48.716;9.648;2022-12-07T15:07:09;6.90;1.00
3684;DHT22;1858;48.716;9.648;2022-12-07T15:09:36;7.00;1.00
3684;DHT22;1858;48.716;9.648;2022-12-07T15:14:54;7.00;1.00
3684;DHT22;1858;48.716;9.648;2022-12-07T15:17:22;7.00;1.00
3684;DHT22;1858;48.716;9.648;2022-12-07T15:19:51;7.00;1.00
3684;DHT22;1858;48.716;9.648;2022-12-07T15:22:22;7.00;1.00
3684;DHT22;1858;48.716;9.648;2022-12-07T15:24:51;6.80;1.00
3684;DHT22;1858;48.716;9.648;2022-12-07T15:27:19;6.80;1.00
3684;DHT22;1858;48.716;9.648;2022-12-07T15:29:47;6.70;1.00
3684;DHT22;1858;48.716;9.648;2022-12-07T15:32:16;6.80;1.00
3684;DHT22;1858;48.716;9.648;2022-12-07T15:34:44;6.80;1.00
3684;DHT22;1858;48.716;9.648;2022-12-07T15:37:13;6.90;1.00
3684;DHT22;1858;48.716;9.648;2022-12-07T15:39:41;6.90;1.00
3684;DHT22;1858;48.716;9.648;2022-12-07T15:42:10;6.90;1.00
3684;DHT22;1858;48.716;9.648;2022-12-07T15:44:38;6.90;1.00
3684;DHT22;1858;48.716;9.648;2022-12-07T15:47:25;6.80;1.00
3684;DHT22;1858;48.716;9.648;2022-12-07T15:49:54;6.80;1.00
3684;DHT22;1858;48.716;9.648;2022-12-07T15:52:23;6.80;1.00
3684;DHT22;1858;48.716;9.648;2022-12-07T15:55:12;6.70;1.00
3684;DHT22;1858;48.716;9.648;2022-12-07T15:57:41;6.70;1.00
3684;DHT22;1858;48.716;9.648;2022-12-07T16:00:10;6.70;1.00
3684;DHT22;1858;48.716;9.648;2022-12-07T16:02:39;6.70;1.00
3684;DHT22;1858;48.716;9.648;2022-12-07T16:05:08;6.70;1.00
3684;DHT22;1858;48.716;9.648;2022-12-07T16:07:36;6.70;1.00
3684;DHT22;1858;48.716;9.648;2022-12-07T16:10:05;6.70;1.00
3684;DHT22;1858;48.716;9.648;2022-12-07T16:12:34;6.70;1.00
3684;DHT22;1858;48.716;9.648;2022-12-07T16:15:02;6.70;1.00
3684;DHT22;1858;48.716;9.648;2022-12-07T16:17:32;6.70;1.00
3684;DHT22;1858;48.716;9.648;2022-12-07T16:20:00;6.60;1.00
3684;DHT22;1858;48.716;9.648;2022-12-07T16:22:29;6.70;1.00
3684;DHT22;1858;48.716;9.648;2022-12-07T16:24:57;6.70;1.00
3684;DHT22;1858;48.716;9.648;2022-12-07T16:27:25;6.70;1.00
3684;DHT22;1858;48.716;9.648;2022-12-07T16:29:54;6.70;1.00
3684;DHT22;1858;48.716;9.648;2022-12-07T16:32:23;6.70;1.00
3684;DHT22;1858;48.716;9.648;2022-12-07T16:34:51;6.70;1.00
3684;DHT22;1858;48.716;9.648;2022-12-07T16:37:20;6.60;1.00
3684;DHT22;1858;48.716;9.648;2022-12-07T16:39:48;6.60;1.00
3684;DHT22;1858;48.716;9.648;2022-12-07T16:42:16;6.60;1.00
3684;DHT22;1858;48.716;9.648;2022-12-07T16:44:45;6.60;1.00
3684;DHT22;1858;48.716;9.648;2022-12-07T16:47:13;6.60;1.00
3684;DHT22;1858;48.716;9.648;2022-12-07T16:49:43;6.60;1.00
3684;DHT22;1858;48.716;9.648;2022-12-07T16:52:11;6.60;1.00
3684;DHT22;1858;48.716;9.648;2022-12-07T16:54:40;6.60;1.00
3684;DHT22;1858;48.716;9.648;2022-12-07T16:57:08;6.50;1.00
3684;DHT22;1858;48.716;9.648;2022-12-07T16:59:36;6.50;1.00
3684;DHT22;1858;48.716;9.648;2022-12-07T17:02:05;6.50;1.00
3684;DHT22;1858;48.716;9.648;2022-12-07T17:04:34;6.50;1.00
3684;DHT22;1858;48.716;9.648;2022-12-07T17:07:03;6.40;1.00
3684;DHT22;1858;48.716;9.648;2022-12-07T17:09:31;6.30;1.00
3684;DHT22;1858;48.716;9.648;2022-12-07T17:11:59;6.30;1.00
3684;DHT22;1858;48.716;9.648;2022-12-07T17:14:28;6.30;1.00
3684;DHT22;1858;48.716;9.648;2022-12-07T17:17:14;6.30;1.00
3684;DHT22;1858;48.716;9.648;2022-12-07T17:19:43;6.30;1.00
3684;DHT22;1858;48.716;9.648;2022-12-07T17:22:30;6.20;1.00
3684;DHT22;1858;48.716;9.648;2022-12-07T17:24:59;6.20;1.00
3684;DHT22;1858;48.716;9.648;2022-12-07T17:27:27;6.20;1.00
3684;DHT22;1858;48.716;9.648;2022-12-07T17:29:56;6.10;1.00
3684;DHT22;1858;48.716;9.648;2022-12-07T17:32:24;6.20;1.00
3684;DHT22;1858;48.716;9.648;2022-12-07T17:34:52;6.20;1.00
3684;DHT22;1858;48.716;9.648;2022-12-07T17:37:21;6.20;1.00
3684;DHT22;1858;48.716;9.648;2022-12-07T17:39:49;6.20;1.00
3684;DHT22;1858;48.716;9.648;2022-12-07T17:42:18;6.10;1.20
3684;DHT22;1858;48.716;9.648;2022-12-07T17:45:08;6.20;4.60
3684;DHT22;1858;48.716;9.648;2022-12-07T17:47:37;6.20;2.60
3684;DHT22;1858;48.716;9.648;2022-12-07T17:50:07;6.20;1.20
3684;DHT22;1858;48.716;9.648;2022-12-07T17:52:39;6.20;3.60
3684;DHT22;1858;48.716;9.648;2022-12-07T17:55:25;6.20;5.00
3684;DHT22;1858;48.716;9.648;2022-12-07T17:57:54;6.10;2.10
3684;DHT22;1858;48.716;9.648;2022-12-07T18:00:22;6.10;2.10
3684;DHT22;1858;48.716;9.648;2022-12-07T18:02:50;6.10;2.90
3684;DHT22;1858;48.716;9.648;2022-12-07T18:05:19;6.10;3.20
3684;DHT22;1858;48.716;9.648;2022-12-07T18:07:47;6.00;6.20
3684;DHT22;1858;48.716;9.648;2022-12-07T18:10:16;6.00;9.30
3684;DHT22;1858;48.716;9.648;2022-12-07T18:12:45;6.00;12.10
3684;DHT22;1858;48.716;9.648;2022-12-07T18:15:13;6.00;12.70
3684;DHT22;1858;48.716;9.648;2022-12-07T18:17:42;6.00;16.80
3684;DHT22;1858;48.716;9.648;2022-12-07T18:22:59;5.90;17.50
3684;DHT22;1858;48.716;9.648;2022-12-07T18:25:28;6.00;20.70
3684;DHT22;1858;48.716;9.648;2022-12-07T18:27:56;5.90;20.50
3684;DHT22;1858;48.716;9.648;2022-12-07T18:30:24;5.90;27.30
3684;DHT22;1858;48.716;9.648;2022-12-07T18:32:53;5.90;24.50
3684;DHT22;1858;48.716;9.648;2022-12-07T18:35:21;5.90;27.80
3684;DHT22;1858;48.716;9.648;2022-12-07T18:37:50;5.90;22.40
3684;DHT22;1858;48.716;9.648;2022-12-07T18:40:18;5.90;23.80
3684;DHT22;1858;48.716;9.648;2022-12-07T18:42:46;5.90;16.80
3684;DHT22;1858;48.716;9.648;2022-12-07T18:45:15;5.90;21.50
3684;DHT22;1858;48.716;9.648;2022-12-07T18:47:43;5.90;28.50
3684;DHT22;1858;48.716;9.648;2022-12-07T18:50:11;5.90;33.80
3684;DHT22;1858;48.716;9.648;2022-12-07T18:52:40;5.90;32.60
3684;DHT22;1858;48.716;9.648;2022-12-07T18:55:08;5.90;34.50
3684;DHT22;1858;48.716;9.648;2022-12-07T18:57:37;5.90;38.60
3684;DHT22;1858;48.716;9.648;2022-12-07T19:00:06;5.90;38.90
3684;DHT22;1858;48.716;9.648;2022-12-07T19:02:35;5.90;41.10